sensor_id;sensor_type;location;lat;lon;timestamp;temperature;humidity
44229;DHT22;29904;51.058;5.378;2023-08-06T00:01:18;16.00;99.90
44229;DHT22;29904;51.058;5.378;2023-08-06T00:03:46;15.90;99.90
44229;DHT22;29904;51.058;5.378;2023-08-06T00:06:12;15.80;99.90
44229;DHT22;29904;51.058;5.378;2023-08-06T00:08:40;15.70;99.90
44229;DHT22;29904;51.058;5.378;2023-08-06T00:11:05;15.70;99.90
44229;DHT22;29904;51.058;5.378;2023-08-06T00:13:31;15.60;99.90
44229;DHT22;29904;51.058;5.378;2023-08-06T00:16:11;15.60;99.90
44229;DHT22;29904;51.058;5.378;2023-08-06T00:18:37;15.60;99.90
44229;DHT22;29904;51.058;5.378;2023-08-06T00:21:03;15.60;99.90
44229;DHT22;29904;51.058;5.378;2023-08-06T00:23:29;15.60;99.90
44229;DHT22;29904;51.058;5.378;2023-08-06T00:25:54;15.60;99.90
44229;DHT22;29904;51.058;5.378;2023-08-06T00:28:20;15.60;99.90
44229;DHT22;29904;51.058;5.378;2023-08-06T00:30:46;15.70;99.90
44229;DHT22;29904;51.058;5.378;2023-08-06T00:33:12;15.70;99.90
44229;DHT22;29904;51.058;5.378;2023-08-06T00:35:39;15.70;99.90
44229;DHT22;29904;51.058;5.378;2023-08-06T00:38:07;15.80;99.90
44229;DHT22;29904;51.058;5.378;2023-08-06T00:40:32;15.80;99.90
44229;DHT22;29904;51.058;5.378;2023-08-06T00:42:58;15.90;99.90
44229;DHT22;29904;51.058;5.378;2023-08-06T00:45:25;15.90;99.90
44229;DHT22;29904;51.058;5.378;2023-08-06T00:47:51;15.90;99.90
44229;DHT22;29904;51.058;5.378;2023-08-06T00:50:17;15.90;99.90
44229;DHT22;29904;51.058;5.378;2023-08-06T00:52:44;16.00;99.90
44229;DHT22;29904;51.058;5.378;2023-08-06T00:55:12;16.00;99.90
44229;DHT22;29904;51.058;5.378;2023-08-06T00:57:37;16.00;99.90
44229;DHT22;29904;51.058;5.378;2023-08-06T01:00:03;16.00;99.90
44229;DHT22;29904;51.058;5.378;2023-08-06T01:02:31;16.00;99.90
44229;DHT22;29904;51.058;5.378;2023-08-06T01:04:57;16.00;99.90
44229;DHT22;29904;51.058;5.378;2023-08-06T01:10:39;16.00;99.90
44229;DHT22;29904;51.058;5.378;2023-08-06T01:13:08;16.00;99.90
44229;DHT22;29904;51.058;5.378;2023-08-06T01:15:46;16.00;99.90
44229;DHT22;29904;51.058;5.378;2023-08-06T01:18:13;16.00;99.90
44229;DHT22;29904;51.058;5.378;2023-08-06T01:20:40;16.00;99.90
44229;DHT22;29904;51.058;5.378;2023-08-06T01:23:07;15.90;99.90
44229;DHT22;29904;51.058;5.378;2023-08-06T01:28:44;15.90;99.90
44229;DHT22;29904;51.058;5.378;2023-08-06T01:31:21;15.90;99.90
44229;DHT22;29904;51.058;5.378;2023-08-06T01:33:49;15.90;99.90
44229;DHT22;29904;51.058;5.378;2023-08-06T01:36:17;15.90;99.90
44229;DHT22;29904;51.058;5.378;2023-08-06T01:38:44;15.90;99.90
44229;DHT22;29904;51.058;5.378;2023-08-06T01:41:12;15.80;99.90
44229;DHT22;29904;51.058;5.378;2023-08-06T01:43:38;15.80;99.90
44229;DHT22;29904;51.058;5.378;2023-08-06T01:46:03;15.80;99.90
44229;DHT22;29904;51.058;5.378;2023-08-06T01:48:31;15.70;99.90
44229;DHT22;29904;51.058;5.378;2023-08-06T01:50:57;15.70;99.90
44229;DHT22;29904;51.058;5.378;2023-08-06T01:53:22;15.70;99.90
44229;DHT22;29904;51.058;5.378;2023-08-06T01:55:50;15.70;99.90
44229;DHT22;29904;51.058;5.378;2023-08-06T01:58:16;15.70;99.90
44229;DHT22;29904;51.058;5.378;2023-08-06T02:00:42;15.70;99.90
44229;DHT22;29904;51.058;5.378;2023-08-06T02:03:08;15.60;99.90
44229;DHT22;29904;51.058;5.378;2023-08-06T02:05:34;15.60;99.90
44229;DHT22;29904;51.058;5.378;2023-08-06T02:07:59;15.60;99.90
44229;DHT22;29904;51.058;5.378;2023-08-06T02:10:25;15.60;99.90
44229;DHT22;29904;51.058;5.378;2023-08-06T02:12:51;15.70;99.90
44229;DHT22;29904;51.058;5.378;2023-08-06T02:15:16;15.60;99.90
44229;DHT22;29904;51.058;5.378;2023-08-06T02:17:42;15.60;99.90
44229;DHT22;29904;51.058;5.378;2023-08-06T02:20:08;15.60;99.90
44229;DHT22;29904;51.058;5.378;2023-08-06T02:22:34;15.60;99.90
44229;DHT22;29904;51.058;5.378;2023-08-06T02:25:00;15.60;99.90
44229;DHT22;29904;51.058;5.378;2023-08-06T02:27:27;15.70;99.90
44229;DHT22;29904;51.058;5.378;2023-08-06T02:29:53;15.60;99.90
44229;DHT22;29904;51.058;5.378;2023-08-06T02:32:19;15.70;99.90
44229;DHT22;29904;51.058;5.378;2023-08-06T02:34:46;15.70;99.90
44229;DHT22;29904;51.058;5.378;2023-08-06T02:37:12;15.70;99.90
44229;DHT22;29904;51.058;5.378;2023-08-06T02:39:37;15.70;99.90
44229;DHT22;29904;51.058;5.378;2023-08-06T02:42:07;15.70;99.90
44229;DHT22;29904;51.058;5.378;2023-08-06T02:44:33;15.70;99.90
44229;DHT22;29904;51.058;5.378;2023-08-06T02:46:59;15.70;99.90
44229;DHT22;29904;51.058;5.378;2023-08-06T02:49:25;15.70;99.90
44229;DHT22;29904;51.058;5.378;2023-08-06T02:51:51;15.80;99.90
44229;DHT22;29904;51.058;5.378;2023-08-06T02:54:18;15.80;99.90
44229;DHT22;29904;51.058;5.378;2023-08-06T02:56:47;15.80;99.90
44229;DHT22;29904;51.058;5.378;2023-08-06T02:59:13;15.70;99.90
44229;DHT22;29904;51.058;5.378;2023-08-06T03:01:39;15.70;99.90
44229;DHT22;29904;51.058;5.378;2023-08-06T03:04:05;15.70;99.90
44229;DHT22;29904;51.058;5.378;2023-08-06T03:06:31;15.70;99.90
44229;DHT22;29904;51.058;5.378;2023-08-06T03:08:57;15.70;99.90
44229;DHT22;29904;51.058;5.378;2023-08-06T03:11:23;15.70;99.90
44229;DHT22;29904;51.058;5.378;2023-08-06T03:13:49;15.70;99.90
44229;DHT22;29904;51.058;5.378;2023-08-06T03:16:15;15.70;99.90
44229;DHT22;29904;51.058;5.378;2023-08-06T03:18:42;15.80;99.90
44229;DHT22;29904;51.058;5.378;2023-08-06T03:21:08;15.80;99.90
44229;DHT22;29904;51.058;5.378;2023-08-06T03:23:34;15.80;99.90
44229;DHT22;29904;51.058;5.378;2023-08-06T03:26:02;15.80;99.90
44229;DHT22;29904;51.058;5.378;2023-08-06T03:28:28;15.80;99.90
44229;DHT22;29904;51.058;5.378;2023-08-06T03:31:05;15.90;99.90
44229;DHT22;29904;51.058;5.378;2023-08-06T03:33:31;15.90;99.90
44229;DHT22;29904;51.058;5.378;2023-08-06T03:35:57;15.90;99.90
44229;DHT22;29904;51.058;5.378;2023-08-06T03:38:25;15.90;99.90
44229;DHT22;29904;51.058;5.378;2023-08-06T03:40:50;15.80;99.90
44229;DHT22;29904;51.058;5.378;2023-08-06T03:43:16;15.90;99.90
44229;DHT22;29904;51.058;5.378;2023-08-06T03:45:42;15.90;99.90
44229;DHT22;29904;51.058;5.378;2023-08-06T03:48:08;15.80;99.90
44229;DHT22;29904;51.058;5.378;2023-08-06T03:50:35;15.90;99.90
44229;DHT22;29904;51.058;5.378;2023-08-06T03:53:02;15.90;99.90
44229;DHT22;29904;51.058;5.378;2023-08-06T03:55:28;15.90;99.90
44229;DHT22;29904;51.058;5.378;2023-08-06T03:57:54;15.80;99.90
44229;DHT22;29904;51.058;5.378;2023-08-06T04:00:21;15.80;99.90
44229;DHT22;29904;51.058;5.378;2023-08-06T04:02:47;15.80;99.90
44229;DHT22;29904;51.058;5.378;2023-08-06T04:05:13;15.90;99.90
44229;DHT22;29904;51.058;5.378;2023-08-06T04:07:39;15.80;99.90
44229;DHT22;29904;51.058;5.378;2023-08-06T04:10:05;15.80;99.90
44229;DHT22;29904;51.058;5.378;2023-08-06T04:12:31;15.80;99.90
44229;DHT22;29904;51.058;5.378;2023-08-06T04:15:00;15.80;99.90
44229;DHT22;29904;51.058;5.378;2023-08-06T04:17:26;15.80;99.90
44229;DHT22;29904;51.058;5.378;2023-08-06T04:19:52;15.70;99.90
44229;DHT22;29904;51.058;5.378;2023-08-06T04:22:20;15.70;99.90
44229;DHT22;29904;51.058;5.378;2023-08-06T04:24:47;15.70;99.90
44229;DHT22;29904;51.058;5.378;2023-08-06T04:27:14;15.70;99.90
44229;DHT22;29904;51.058;5.378;2023-08-06T04:29:40;15.70;99.90
44229;DHT22;29904;51.058;5.378;2023-08-06T04:32:07;15.60;99.90
44229;DHT22;29904;51.058;5.378;2023-08-06T04:34:34;15.60;99.90
44229;DHT22;29904;51.058;5.378;2023-08-06T04:37:02;15.70;99.90
44229;DHT22;29904;51.058;5.378;2023-08-06T04:39:28;15.70;99.90
44229;DHT22;29904;51.058;5.378;2023-08-06T04:41:55;15.60;99.90
44229;DHT22;29904;51.058;5.378;2023-08-06T04:44:23;15.60;99.90
44229;DHT22;29904;51.058;5.378;2023-08-06T04:46:49;15.60;99.90
44229;DHT22;29904;51.058;5.378;2023-08-06T04:49:15;15.50;99.90
44229;DHT22;29904;51.058;5.378;2023-08-06T04:51:41;15.50;99.90
44229;DHT22;29904;51.058;5.378;2023-08-06T04:54:09;15.50;99.90
44229;DHT22;29904;51.058;5.378;2023-08-06T04:56:35;15.50;99.90
44229;DHT22;29904;51.058;5.378;2023-08-06T04:59:00;15.40;99.90
44229;DHT22;29904;51.058;5.378;2023-08-06T05:01:28;15.40;99.90
44229;DHT22;29904;51.058;5.378;2023-08-06T05:03:54;15.40;99.90
44229;DHT22;29904;51.058;5.378;2023-08-06T05:06:20;15.50;99.90
44229;DHT22;29904;51.058;5.378;2023-08-06T05:08:47;15.40;99.90
44229;DHT22;29904;51.058;5.378;2023-08-06T05:11:13;15.40;99.90
44229;DHT22;29904;51.058;5.378;2023-08-06T05:13:39;15.40;99.90
44229;DHT22;29904;51.058;5.378;2023-08-06T05:16:05;15.50;99.90
44229;DHT22;29904;51.058;5.378;2023-08-06T05:18:31;15.40;99.90
44229;DHT22;29904;51.058;5.378;2023-08-06T05:20:56;15.40;99.90
44229;DHT22;29904;51.058;5.378;2023-08-06T05:23:24;15.40;99.90
44229;DHT22;29904;51.058;5.378;2023-08-06T05:25:50;15.40;99.90
44229;DHT22;29904;51.058;5.378;2023-08-06T05:28:16;15.40;99.90
44229;DHT22;29904;51.058;5.378;2023-08-06T05:30:42;15.40;99.90
44229;DHT22;29904;51.058;5.378;2023-08-06T05:33:09;15.40;99.90
44229;DHT22;29904;51.058;5.378;2023-08-06T05:35:35;15.30;99.90
44229;DHT22;29904;51.058;5.378;2023-08-06T05:38:01;15.30;99.90
44229;DHT22;29904;51.058;5.378;2023-08-06T05:40:28;15.20;99.90
44229;DHT22;29904;51.058;5.378;2023-08-06T05:42:54;15.30;99.90
44229;DHT22;29904;51.058;5.378;2023-08-06T05:45:20;15.40;99.90
44229;DHT22;29904;51.058;5.378;2023-08-06T05:47:48;15.40;99.90
44229;DHT22;29904;51.058;5.378;2023-08-06T05:50:14;15.40;99.90
44229;DHT22;29904;51.058;5.378;2023-08-06T05:52:40;15.40;99.90
44229;DHT22;29904;51.058;5.378;2023-08-06T05:55:06;15.40;99.90
44229;DHT22;29904;51.058;5.378;2023-08-06T05:57:32;15.50;99.90
44229;DHT22;29904;51.058;5.378;2023-08-06T05:59:58;15.50;99.90
44229;DHT22;29904;51.058;5.378;2023-08-06T06:02:25;15.50;99.90
44229;DHT22;29904;51.058;5.378;2023-08-06T06:04:51;15.50;99.90
44229;DHT22;29904;51.058;5.378;2023-08-06T06:07:17;15.50;99.90
44229;DHT22;29904;51.058;5.378;2023-08-06T06:09:43;15.50;99.90
44229;DHT22;29904;51.058;5.378;2023-08-06T06:12:09;15.60;99.90
44229;DHT22;29904;51.058;5.378;2023-08-06T06:14:34;15.50;99.90
44229;DHT22;29904;51.058;5.378;2023-08-06T06:17:00;15.50;99.90
44229;DHT22;29904;51.058;5.378;2023-08-06T06:19:26;15.50;99.90
44229;DHT22;29904;51.058;5.378;2023-08-06T06:21:53;15.50;99.90
44229;DHT22;29904;51.058;5.378;2023-08-06T06:24:19;15.40;99.90
44229;DHT22;29904;51.058;5.378;2023-08-06T06:26:44;15.30;99.90
44229;DHT22;29904;51.058;5.378;2023-08-06T06:29:10;15.20;99.90
44229;DHT22;29904;51.058;5.378;2023-08-06T06:31:36;15.20;99.90
44229;DHT22;29904;51.058;5.378;2023-08-06T06:34:02;15.10;99.90
44229;DHT22;29904;51.058;5.378;2023-08-06T06:36:27;15.00;99.90
44229;DHT22;29904;51.058;5.378;2023-08-06T06:38:53;14.90;99.90
44229;DHT22;29904;51.058;5.378;2023-08-06T06:41:19;14.80;99.90
44229;DHT22;29904;51.058;5.378;2023-08-06T06:43:45;14.50;99.90
44229;DHT22;29904;51.058;5.378;2023-08-06T06:46:10;14.40;99.90
44229;DHT22;29904;51.058;5.378;2023-08-06T06:48:36;14.30;99.90
44229;DHT22;29904;51.058;5.378;2023-08-06T06:51:02;14.20;99.90
44229;DHT22;29904;51.058;5.378;2023-08-06T06:53:28;14.10;99.90
44229;DHT22;29904;51.058;5.378;2023-08-06T06:56:02;14.10;99.90
44229;DHT22;29904;51.058;5.378;2023-08-06T06:58:30;14.10;99.90
44229;DHT22;29904;51.058;5.378;2023-08-06T07:00:57;14.20;99.90
44229;DHT22;29904;51.058;5.378;2023-08-06T07:03:23;14.20;99.90
44229;DHT22;29904;51.058;5.378;2023-08-06T07:05:49;14.20;99.90
44229;DHT22;29904;51.058;5.378;2023-08-06T07:08:15;14.30;99.90
44229;DHT22;29904;51.058;5.378;2023-08-06T07:10:41;14.30;99.90
44229;DHT22;29904;51.058;5.378;2023-08-06T07:13:07;14.30;99.90
44229;DHT22;29904;51.058;5.378;2023-08-06T07:15:33;14.40;99.90
44229;DHT22;29904;51.058;5.378;2023-08-06T07:17:59;14.50;99.90
44229;DHT22;29904;51.058;5.378;2023-08-06T07:20:25;14.50;99.90
44229;DHT22;29904;51.058;5.378;2023-08-06T07:22:51;14.60;99.90
44229;DHT22;29904;51.058;5.378;2023-08-06T07:25:17;14.70;99.90
44229;DHT22;29904;51.058;5.378;2023-08-06T07:27:42;14.80;99.90
44229;DHT22;29904;51.058;5.378;2023-08-06T07:30:08;14.90;99.90
44229;DHT22;29904;51.058;5.378;2023-08-06T07:32:34;14.90;99.90
44229;DHT22;29904;51.058;5.378;2023-08-06T07:35:00;14.90;99.90
44229;DHT22;29904;51.058;5.378;2023-08-06T07:37:28;15.00;99.90
44229;DHT22;29904;51.058;5.378;2023-08-06T07:39:57;15.00;99.90
44229;DHT22;29904;51.058;5.378;2023-08-06T07:42:22;15.00;99.90
44229;DHT22;29904;51.058;5.378;2023-08-06T07:44:53;14.90;99.90
44229;DHT22;29904;51.058;5.378;2023-08-06T07:47:19;14.90;99.90
44229;DHT22;29904;51.058;5.378;2023-08-06T07:49:45;14.80;99.90
44229;DHT22;29904;51.058;5.378;2023-08-06T07:52:10;14.80;99.90
44229;DHT22;29904;51.058;5.378;2023-08-06T07:54:36;14.70;99.90
44229;DHT22;29904;51.058;5.378;2023-08-06T07:57:02;14.60;99.90
44229;DHT22;29904;51.058;5.378;2023-08-06T07:59:28;14.50;99.90
44229;DHT22;29904;51.058;5.378;2023-08-06T08:01:54;14.50;99.90
44229;DHT22;29904;51.058;5.378;2023-08-06T08:04:19;14.50;99.90
44229;DHT22;29904;51.058;5.378;2023-08-06T08:06:46;14.50;99.90
44229;DHT22;29904;51.058;5.378;2023-08-06T08:09:13;14.50;99.90
44229;DHT22;29904;51.058;5.378;2023-08-06T08:11:39;14.40;99.90
44229;DHT22;29904;51.058;5.378;2023-08-06T08:14:05;14.40;99.90
44229;DHT22;29904;51.058;5.378;2023-08-06T08:16:31;14.40;99.90
44229;DHT22;29904;51.058;5.378;2023-08-06T08:18:57;14.40;99.90
44229;DHT22;29904;51.058;5.378;2023-08-06T08:21:22;14.40;99.90
44229;DHT22;29904;51.058;5.378;2023-08-06T08:23:50;14.50;99.90
44229;DHT22;29904;51.058;5.378;2023-08-06T08:26:15;14.50;99.90
44229;DHT22;29904;51.058;5.378;2023-08-06T08:28:41;14.50;99.90
44229;DHT22;29904;51.058;5.378;2023-08-06T08:31:11;14.50;99.90
44229;DHT22;29904;51.058;5.378;2023-08-06T08:33:37;14.50;99.90
44229;DHT22;29904;51.058;5.378;2023-08-06T08:36:03;14.50;99.90
44229;DHT22;29904;51.058;5.378;2023-08-06T08:38:29;14.50;99.90
44229;DHT22;29904;51.058;5.378;2023-08-06T08:40:55;14.60;99.90
44229;DHT22;29904;51.058;5.378;2023-08-06T08:43:22;14.60;99.90
44229;DHT22;29904;51.058;5.378;2023-08-06T08:45:53;14.70;99.90
44229;DHT22;29904;51.058;5.378;2023-08-06T08:48:26;14.70;99.90
44229;DHT22;29904;51.058;5.378;2023-08-06T08:50:55;14.70;99.90
44229;DHT22;29904;51.058;5.378;2023-08-06T08:53:22;14.80;99.90
44229;DHT22;29904;51.058;5.378;2023-08-06T08:55:49;14.80;99.90
44229;DHT22;29904;51.058;5.378;2023-08-06T08:58:17;14.80;99.90
44229;DHT22;29904;51.058;5.378;2023-08-06T09:00:43;14.90;99.90
44229;DHT22;29904;51.058;5.378;2023-08-06T09:03:11;15.00;99.90
44229;DHT22;29904;51.058;5.378;2023-08-06T09:05:40;14.90;99.90
44229;DHT22;29904;51.058;5.378;2023-08-06T09:08:11;14.90;99.90
44229;DHT22;29904;51.058;5.378;2023-08-06T09:10:39;15.00;99.90
44229;DHT22;29904;51.058;5.378;2023-08-06T09:13:06;15.00;99.90
44229;DHT22;29904;51.058;5.378;2023-08-06T09:15:32;15.10;99.90
44229;DHT22;29904;51.058;5.378;2023-08-06T09:17:59;15.10;99.90
44229;DHT22;29904;51.058;5.378;2023-08-06T09:20:25;15.10;99.90
44229;DHT22;29904;51.058;5.378;2023-08-06T09:22:53;15.20;99.90
44229;DHT22;29904;51.058;5.378;2023-08-06T09:25:23;15.20;99.90
44229;DHT22;29904;51.058;5.378;2023-08-06T09:27:51;15.30;99.90
44229;DHT22;29904;51.058;5.378;2023-08-06T09:30:30;15.30;99.90
44229;DHT22;29904;51.058;5.378;2023-08-06T09:32:56;15.30;99.90
44229;DHT22;29904;51.058;5.378;2023-08-06T09:35:22;15.30;99.90
44229;DHT22;29904;51.058;5.378;2023-08-06T09:37:48;15.40;99.90
44229;DHT22;29904;51.058;5.378;2023-08-06T09:40:31;15.40;99.90
44229;DHT22;29904;51.058;5.378;2023-08-06T09:42:59;15.40;99.90
44229;DHT22;29904;51.058;5.378;2023-08-06T09:45:30;15.40;99.90
44229;DHT22;29904;51.058;5.378;2023-08-06T09:47:58;15.30;99.90
44229;DHT22;29904;51.058;5.378;2023-08-06T09:50:28;15.20;99.90
44229;DHT22;29904;51.058;5.378;2023-08-06T09:52:55;15.20;99.90
44229;DHT22;29904;51.058;5.378;2023-08-06T09:55:21;15.30;99.90
44229;DHT22;29904;51.058;5.378;2023-08-06T09:57:49;15.40;99.90
44229;DHT22;29904;51.058;5.378;2023-08-06T10:00:15;15.50;99.90
44229;DHT22;29904;51.058;5.378;2023-08-06T10:02:42;15.50;99.90
44229;DHT22;29904;51.058;5.378;2023-08-06T10:05:10;15.60;99.90
44229;DHT22;29904;51.058;5.378;2023-08-06T10:07:37;15.70;99.90
44229;DHT22;29904;51.058;5.378;2023-08-06T10:10:06;16.00;99.90
44229;DHT22;29904;51.058;5.378;2023-08-06T10:12:41;16.20;99.90
44229;DHT22;29904;51.058;5.378;2023-08-06T10:15:15;16.20;99.90
44229;DHT22;29904;51.058;5.378;2023-08-06T10:17:43;16.00;99.90
44229;DHT22;29904;51.058;5.378;2023-08-06T10:20:09;16.00;99.90
44229;DHT22;29904;51.058;5.378;2023-08-06T10:22:35;15.80;99.90
44229;DHT22;29904;51.058;5.378;2023-08-06T10:25:02;15.80;99.90
44229;DHT22;29904;51.058;5.378;2023-08-06T10:30:31;15.90;99.90
44229;DHT22;29904;51.058;5.378;2023-08-06T10:33:00;16.00;99.90
44229;DHT22;29904;51.058;5.378;2023-08-06T10:35:41;15.90;99.90
44229;DHT22;29904;51.058;5.378;2023-08-06T10:38:16;15.80;99.90
44229;DHT22;29904;51.058;5.378;2023-08-06T10:43:45;15.70;99.90
44229;DHT22;29904;51.058;5.378;2023-08-06T10:46:23;15.70;99.90
44229;DHT22;29904;51.058;5.378;2023-08-06T10:48:49;15.60;99.90
44229;DHT22;29904;51.058;5.378;2023-08-06T10:51:14;15.50;99.90
44229;DHT22;29904;51.058;5.378;2023-08-06T10:53:49;15.40;99.90
44229;DHT22;29904;51.058;5.378;2023-08-06T10:56:22;15.40;99.90
44229;DHT22;29904;51.058;5.378;2023-08-06T10:58:48;15.30;99.90
44229;DHT22;29904;51.058;5.378;2023-08-06T11:01:14;15.30;99.90
44229;DHT22;29904;51.058;5.378;2023-08-06T11:03:42;15.30;99.90
44229;DHT22;29904;51.058;5.378;2023-08-06T11:06:09;15.30;99.90
44229;DHT22;29904;51.058;5.378;2023-08-06T11:08:36;15.40;99.90
44229;DHT22;29904;51.058;5.378;2023-08-06T11:11:14;15.40;99.90
44229;DHT22;29904;51.058;5.378;2023-08-06T11:13:44;15.50;99.90
44229;DHT22;29904;51.058;5.378;2023-08-06T11:16:18;15.50;99.90
44229;DHT22;29904;51.058;5.378;2023-08-06T11:18:46;15.60;99.90
44229;DHT22;29904;51.058;5.378;2023-08-06T11:21:12;15.60;99.90
44229;DHT22;29904;51.058;5.378;2023-08-06T11:23:39;15.70;99.90
44229;DHT22;29904;51.058;5.378;2023-08-06T11:26:05;15.90;99.90
44229;DHT22;29904;51.058;5.378;2023-08-06T11:28:31;16.00;99.90
44229;DHT22;29904;51.058;5.378;2023-08-06T11:30:58;16.10;99.90
44229;DHT22;29904;51.058;5.378;2023-08-06T11:33:27;16.10;99.90
44229;DHT22;29904;51.058;5.378;2023-08-06T11:35:55;16.10;99.90
44229;DHT22;29904;51.058;5.378;2023-08-06T11:38:24;16.10;99.90
44229;DHT22;29904;51.058;5.378;2023-08-06T11:40:50;16.10;99.90
44229;DHT22;29904;51.058;5.378;2023-08-06T11:43:18;16.10;99.90
44229;DHT22;29904;51.058;5.378;2023-08-06T11:45:46;16.10;99.90
44229;DHT22;29904;51.058;5.378;2023-08-06T11:48:12;16.00;99.90
44229;DHT22;29904;51.058;5.378;2023-08-06T11:50:38;15.90;99.90
44229;DHT22;29904;51.058;5.378;2023-08-06T11:53:06;15.80;99.90
44229;DHT22;29904;51.058;5.378;2023-08-06T11:55:32;15.70;99.90
44229;DHT22;29904;51.058;5.378;2023-08-06T11:57:59;15.70;99.90
44229;DHT22;29904;51.058;5.378;2023-08-06T12:00:30;15.60;99.90
44229;DHT22;29904;51.058;5.378;2023-08-06T12:02:56;15.60;99.90
44229;DHT22;29904;51.058;5.378;2023-08-06T12:05:23;15.60;99.90
44229;DHT22;29904;51.058;5.378;2023-08-06T12:07:56;15.70;99.90
44229;DHT22;29904;51.058;5.378;2023-08-06T12:10:26;15.70;99.90
44229;DHT22;29904;51.058;5.378;2023-08-06T12:12:53;15.70;99.90
44229;DHT22;29904;51.058;5.378;2023-08-06T12:15:19;15.70;99.90
44229;DHT22;29904;51.058;5.378;2023-08-06T12:17:45;15.70;99.90
44229;DHT22;29904;51.058;5.378;2023-08-06T12:20:13;15.80;99.90
44229;DHT22;29904;51.058;5.378;2023-08-06T12:22:39;16.00;99.90
44229;DHT22;29904;51.058;5.378;2023-08-06T12:25:11;16.10;99.90
44229;DHT22;29904;51.058;5.378;2023-08-06T12:27:43;16.10;99.90
44229;DHT22;29904;51.058;5.378;2023-08-06T12:30:13;16.30;99.90
44229;DHT22;29904;51.058;5.378;2023-08-06T12:32:39;16.60;99.90
44229;DHT22;29904;51.058;5.378;2023-08-06T12:35:07;16.70;99.90
44229;DHT22;29904;51.058;5.378;2023-08-06T12:37:33;16.70;99.90
44229;DHT22;29904;51.058;5.378;2023-08-06T12:39:59;16.70;99.90
44229;DHT22;29904;51.058;5.378;2023-08-06T12:42:27;16.80;99.90
44229;DHT22;29904;51.058;5.378;2023-08-06T12:44:53;16.70;99.90
44229;DHT22;29904;51.058;5.378;2023-08-06T12:47:19;16.50;99.90
44229;DHT22;29904;51.058;5.378;2023-08-06T12:49:45;16.30;99.90
44229;DHT22;29904;51.058;5.378;2023-08-06T12:52:11;16.10;99.90
44229;DHT22;29904;51.058;5.378;2023-08-06T12:54:38;15.90;99.90
44229;DHT22;29904;51.058;5.378;2023-08-06T12:57:05;15.70;99.90
44229;DHT22;29904;51.058;5.378;2023-08-06T12:59:31;15.80;99.90
44229;DHT22;29904;51.058;5.378;2023-08-06T13:02:00;15.70;99.90
44229;DHT22;29904;51.058;5.378;2023-08-06T13:04:26;15.70;99.90
44229;DHT22;29904;51.058;5.378;2023-08-06T13:06:53;15.60;99.90
44229;DHT22;29904;51.058;5.378;2023-08-06T13:09:19;15.60;99.90
44229;DHT22;29904;51.058;5.378;2023-08-06T13:11:45;15.60;99.90
44229;DHT22;29904;51.058;5.378;2023-08-06T13:14:13;15.60;99.90
44229;DHT22;29904;51.058;5.378;2023-08-06T13:16:41;15.60;99.90
44229;DHT22;29904;51.058;5.378;2023-08-06T13:19:07;15.70;99.90
44229;DHT22;29904;51.058;5.378;2023-08-06T13:24:11;15.70;99.90
44229;DHT22;29904;51.058;5.378;2023-08-06T13:26:38;15.60;99.90
44229;DHT22;29904;51.058;5.378;2023-08-06T13:29:06;15.60;99.90
44229;DHT22;29904;51.058;5.378;2023-08-06T13:31:33;15.50;99.90
44229;DHT22;29904;51.058;5.378;2023-08-06T13:33:59;15.50;99.90
44229;DHT22;29904;51.058;5.378;2023-08-06T13:36:27;15.60;99.90
44229;DHT22;29904;51.058;5.378;2023-08-06T13:38:53;15.60;99.90
44229;DHT22;29904;51.058;5.378;2023-08-06T13:41:19;15.60;99.90
44229;DHT22;29904;51.058;5.378;2023-08-06T13:43:45;15.80;99.90
44229;DHT22;29904;51.058;5.378;2023-08-06T13:46:11;15.90;99.90
44229;DHT22;29904;51.058;5.378;2023-08-06T13:48:42;15.90;99.90
44229;DHT22;29904;51.058;5.378;2023-08-06T13:51:10;16.00;99.90
44229;DHT22;29904;51.058;5.378;2023-08-06T13:53:37;16.10;99.90
44229;DHT22;29904;51.058;5.378;2023-08-06T13:56:03;16.20;99.90
44229;DHT22;29904;51.058;5.378;2023-08-06T13:58:29;16.30;99.90
44229;DHT22;29904;51.058;5.378;2023-08-06T14:00:55;16.30;99.90
44229;DHT22;29904;51.058;5.378;2023-08-06T14:03:22;16.30;99.90
44229;DHT22;29904;51.058;5.378;2023-08-06T14:05:48;16.40;99.90
44229;DHT22;29904;51.058;5.378;2023-08-06T14:08:14;16.50;99.90
44229;DHT22;29904;51.058;5.378;2023-08-06T14:10:40;16.30;99.90
44229;DHT22;29904;51.058;5.378;2023-08-06T14:13:06;16.30;99.90
44229;DHT22;29904;51.058;5.378;2023-08-06T14:15:32;16.20;99.90
44229;DHT22;29904;51.058;5.378;2023-08-06T14:17:58;16.10;99.90
44229;DHT22;29904;51.058;5.378;2023-08-06T14:20:24;16.20;99.90
44229;DHT22;29904;51.058;5.378;2023-08-06T14:22:50;16.30;99.90
44229;DHT22;29904;51.058;5.378;2023-08-06T14:25:16;16.50;99.90
44229;DHT22;29904;51.058;5.378;2023-08-06T14:27:43;16.70;99.90
44229;DHT22;29904;51.058;5.378;2023-08-06T14:30:11;16.70;99.90
44229;DHT22;29904;51.058;5.378;2023-08-06T14:32:37;16.80;99.90
44229;DHT22;29904;51.058;5.378;2023-08-06T14:35:03;17.00;99.90
44229;DHT22;29904;51.058;5.378;2023-08-06T14:37:29;17.20;99.90
44229;DHT22;29904;51.058;5.378;2023-08-06T14:39:54;17.40;99.90
44229;DHT22;29904;51.058;5.378;2023-08-06T14:42:20;17.50;99.90
44229;DHT22;29904;51.058;5.378;2023-08-06T14:44:46;17.70;99.90
44229;DHT22;29904;51.058;5.378;2023-08-06T14:47:12;17.80;99.90
44229;DHT22;29904;51.058;5.378;2023-08-06T14:49:40;17.90;99.90
44229;DHT22;29904;51.058;5.378;2023-08-06T14:52:06;17.80;99.90
44229;DHT22;29904;51.058;5.378;2023-08-06T14:54:31;17.60;99.90
44229;DHT22;29904;51.058;5.378;2023-08-06T14:56:57;17.50;99.90
44229;DHT22;29904;51.058;5.378;2023-08-06T14:59:23;17.20;99.90
44229;DHT22;29904;51.058;5.378;2023-08-06T15:01:49;17.10;99.90
44229;DHT22;29904;51.058;5.378;2023-08-06T15:04:16;17.00;99.90
44229;DHT22;29904;51.058;5.378;2023-08-06T15:06:44;16.90;99.90
44229;DHT22;29904;51.058;5.378;2023-08-06T15:09:10;16.90;99.90
44229;DHT22;29904;51.058;5.378;2023-08-06T15:11:38;16.80;99.90
44229;DHT22;29904;51.058;5.378;2023-08-06T15:14:04;16.60;99.90
44229;DHT22;29904;51.058;5.378;2023-08-06T15:16:33;16.40;99.90
44229;DHT22;29904;51.058;5.378;2023-08-06T15:19:00;16.20;99.90
44229;DHT22;29904;51.058;5.378;2023-08-06T15:21:26;16.10;99.90
44229;DHT22;29904;51.058;5.378;2023-08-06T15:23:52;15.90;99.90
44229;DHT22;29904;51.058;5.378;2023-08-06T15:26:17;15.70;99.90
44229;DHT22;29904;51.058;5.378;2023-08-06T15:28:43;15.70;99.90
44229;DHT22;29904;51.058;5.378;2023-08-06T15:31:09;15.80;99.90
44229;DHT22;29904;51.058;5.378;2023-08-06T15:33:35;15.70;99.90
44229;DHT22;29904;51.058;5.378;2023-08-06T15:36:01;15.70;99.90
44229;DHT22;29904;51.058;5.378;2023-08-06T15:38:27;15.60;99.90
44229;DHT22;29904;51.058;5.378;2023-08-06T15:40:55;15.50;99.90
44229;DHT22;29904;51.058;5.378;2023-08-06T15:43:20;15.40;99.90